x

Stonewall Bank - 20nm West Of Newport, Or (46050) Wave Buoy

6:50am - Sat 21st Jan 2017 All times are PST. -8 hours from GMT.

  • Sig Wave height 19.4ft
  • Swell Direction
  • Peak Period 17s
  • Average Period 11s
  • Wind
    22mph, 29mph gusts
  • Sea Temp 51°f
  • Air Temp 47°f
  • Sea Pressure 988.8mb
  • Stonewall Bank - 20nm West Of Newport, Or
  • Stonewall Bank - 20nm West Of Newport, Or

More Historic Weather Station data

Upgrade to MSW Pro to gain access to the past 30 days of data for over 8000 Wavebouys and Weather Stations around the globe.

Join Pro

Comparision Forecast

View Surf forecast
   
Sat 01/21 6:50am 19.5ft 17s 11s 22 29 mph 988.8mb 51f 47f
5:50am 18.5ft 16s 11s 25 29 mph 988.3mb 51f 49f
4:50am 20.5ft 16s 11s 27 31 mph 988.1mb 51f 48f
3:50am 22.5ft 17s 12s 22 27 mph 987.9mb 51f 48f
2:50am 20ft 17s 11s 25 29 mph 987.6mb 51f 47f
1:50am 17.5ft 17s 10s 27 31 mph 986.8mb 51f 47f
12:50am 14ft 15s 9s 22 27 mph 986.6mb 51f 46f
Fri 01/20 11:50pm 12ft 13s 8s 22 27 mph 986.4mb 51f 47f
10:50pm 12.5ft 14s 8s 25 29 mph 986mb 51f 49f
9:50pm 11ft 13s 8s 25 29 mph 985.5mb 51f 49f
8:50pm 12ft 16s 8s 25 29 mph 985mb 51f 48f
7:50pm 11ft 16s 8s 20 22 mph 984.8mb 51f 46f
6:50pm 12ft 14s 8s 25 29 mph 984.1mb 51f 47f
5:50pm 12.5ft 15s 9s 22 27 mph 983.7mb 51f 48f
4:50pm 13ft 14s 9s 18 25 mph 983.7mb 51f 45f
3:50pm 13ft 16s 9s 18 20 mph 983.1mb 51f 47f
2:50pm 13.5ft 14s 9s 22 29 mph 982.5mb 51f 48f
1:50pm 14ft 14s 9s 20 25 mph 982.3mb 51f 49f
12:50pm 16ft 15s 10s 25 31 mph 982.1mb 51f 47f
11:50am 15ft 15s 9s 25 29 mph 982.3mb 51f 49f
10:50am 16.5ft 16s 9s 20 25 mph 982.4mb 51f 46f
9:50am 15ft 15s 9s 29 36 mph 981.8mb 51f 49f
8:50am 14.5ft 13s 8s 29 36 mph 981.2mb 51f 49f
7:50am 14ft 16s 9s 29 36 mph 980.9mb 51f 49f
6:50am 14.5ft 13s 9s 27 31 mph 980.8mb 51f 49f
5:50am 15ft 16s 9s 25 31 mph 981.8mb 51f 46f
4:50am 14ft 16s 9s 22 29 mph 983.2mb 51f 46f
3:50am 17.5ft 16s 10s 22 29 mph 985mb 51f 46f
2:50am 15ft 15s 10s 22 27 mph 986.5mb 51f 47f
1:50am 17.5ft 15s 10s 20 25 mph 988mb 51f 48f
12:50am 15ft 13s 9s 20 25 mph 989.3mb 51f 47f
Thu 01/19 11:50pm 15.5ft 15s 9s 20 22 mph 991mb 51f 49f
10:50pm 15.5ft 14s 9s 22 29 mph 992.6mb 51f 49f
9:50pm 16ft 15s 9s 20 25 mph 994.1mb 51f 46f
8:50pm 15.5ft 14s 9s 27 34 mph 995.2mb 51f 47f
7:50pm 15ft 14s 8s 27 36 mph 995.8mb 51f 49f
6:50pm 15.5ft 14s 9s 27 34 mph 997.1mb 51f 49f
5:50pm 15ft 14s 8s 27 31 mph 998.1mb 51f 46f
4:50pm 13ft 13s 8s 27 31 mph 998.7mb 51f 49f
3:50pm 14ft 13s 8s 27 34 mph 999.2mb 51f 50f
2:50pm 14ft 12s 9s 27 31 mph 999.7mb 51f 48f
1:50pm 12ft 11s 8s 25 31 mph 1000.2mb 50f 51f
12:50pm 12ft 12s 8s 22 27 mph 1001mb 50f 51f
11:50am 13ft 13s 9s 18 22 mph 1001.7mb 50f 49f
10:50am 12ft 11s 8s 22 29 mph 1001.8mb 50f 51f
9:50am 11.5ft 11s 8s 20 27 mph 1001.8mb 50f 51f
8:50am 14ft 13s 8s 16 20 mph 1001.4mb 50f 47f
7:50am 14ft 12s 8s 20 27 mph 1000.6mb 50f 50f
6:50am 12ft 13s 8s 22 27 mph 999.9mb 50f 49f
5:50am 13ft 11s 8s 22 27 mph 999.2mb 50f 51f
4:50am 12.5ft 12s 8s 25 29 mph 998.5mb 51f 50f
3:50am 12.5ft 12s 8s 25 31 mph 998.4mb 51f 51f
2:50am 13ft 12s 8s 25 29 mph 998mb 51f 51f
1:50am 14ft 12s 8s 27 34 mph 997.3mb 51f 51f
12:50am 13.5ft 12s 8s 25 31 mph 996.9mb 51f 50f
Wed 01/18 11:50pm 13.5ft 12s 8s 22 29 mph 996.7mb 51f 51f
10:50pm 15ft 12s 8s 20 25 mph 996mb 51f 51f
9:50pm 14ft 12s 9s 22 27 mph 994.9mb 51f 51f
8:50pm 14.5ft 12s 8s 25 29 mph 994.3mb 50f 51f
7:50pm 15ft 12s 9s 22 27 mph 993.7mb 50f 51f
6:50pm 15ft 11s 8s 22 27 mph 992.8mb 50f 49f
5:50pm 16ft 13s 9s 18 22 mph 991.3mb 50f 48f
4:50pm 16.5ft 13s 8s 20 27 mph 989.4mb 50f 49f
3:50pm 16ft 11s 8s 22 27 mph 988.9mb 51f 50f
2:50pm 15.5ft 13s 8s 22 29 mph 989.5mb 51f 51f
1:50pm 16.5ft 13s 8s 34 40 mph 990.4mb 51f 52f
12:50pm 19ft 12s 8s 31 40 mph 991.8mb 51f 52f
11:50am 20ft 13s 9s 34 43 mph 992.7mb 51f 53f
10:50am 19ft 11s 9s 34 43 mph 993.7mb 51f 53f
9:50am 19.5ft 14s 9s 36 45 mph 993.8mb 51f 52f
8:50am 21.5ft 12s 9s 34 40 mph 994.1mb 51f 52f
7:50am 27.5ft 13s 10s 38 49 mph 993.8mb 51f 52f
6:50am 25.5ft 13s 9s 40 51 mph 993.7mb 51f 51f
5:50am 23.5ft 11s 9s 43 54 mph 993.2mb 51f 51f
4:50am 21.5ft 12s 8s 45 58 mph 993.1mb 51f 52f
3:50am 23.5ft 12s 9s 40 54 mph 994mb 51f 51f
2:50am 22ft 12s 9s 43 54 mph 995.6mb 51f 52f
1:50am 25.5ft 11s 9s 36 47 mph 997mb 51f 51f
12:50am 23.5ft 11s 9s 40 51 mph 997mb 50f 51f
Tue 01/17 11:50pm 25ft 11s 9s 40 51 mph 997.9mb 50f 51f
10:50pm 24ft 11s 9s 40 49 mph 998.7mb 50f 51f
9:50pm 26ft 12s 9s 43 56 mph 998.8mb 50f 51f
8:50pm 23ft 11s 9s 40 54 mph 999mb 50f 51f
7:50pm 23ft 11s 9s 40 51 mph 999.1mb 50f 50f
6:50pm 22.5ft 11s 9s 40 51 mph 999.6mb 50f 50f
5:50pm 20ft 10s 8s 40 49 mph 1000mb 49f 50f
4:50pm 20.5ft 11s 8s 43 51 mph 1000.5mb 49f 50f